Map

Track Data

SID SEASON NUMBER BASIN SUBBASIN NAME ISO_TIME NATURE LAT LON WMO_WIND WMO_PRES WMO_AGENCY TRACK_TYPE DIST2LAND LANDFALL IFLAG USA_AGENCY USA_ATCF_ID USA_LAT USA_LON USA_RECORD USA_STATUS USA_WIND USA_PRES USA_SSHS USA_R34_NE USA_R34_SE USA_R34_SW USA_R34_NW USA_R50_NE USA_R50_SE USA_R50_SW USA_R50_NW USA_R64_NE USA_R64_SE USA_R64_SW USA_R64_NW USA_POCI USA_ROCI USA_RMW USA_EYE TOKYO_LAT TOKYO_LON TOKYO_GRADE TOKYO_WIND TOKYO_PRES TOKYO_R50_DIR TOKYO_R50_LONG TOKYO_R50_SHORT TOKYO_R30_DIR TOKYO_R30_LONG TOKYO_R30_SHORT TOKYO_LAND CMA_LAT CMA_LON CMA_CAT CMA_WIND CMA_PRES HKO_LAT HKO_LON HKO_CAT HKO_WIND HKO_PRES NEWDELHI_LAT NEWDELHI_LON NEWDELHI_GRADE NEWDELHI_WIND NEWDELHI_PRES NEWDELHI_CI NEWDELHI_DP NEWDELHI_POCI REUNION_LAT REUNION_LON REUNION_TYPE REUNION_WIND REUNION_PRES REUNION_TNUM REUNION_CI REUNION_RMW REUNION_R34_NE REUNION_R34_SE REUNION_R34_SW REUNION_R34_NW REUNION_R50_NE REUNION_R50_SE REUNION_R50_SW REUNION_R50_NW REUNION_R64_NE REUNION_R64_SE REUNION_R64_SW REUNION_R64_NW BOM_LAT BOM_LON BOM_TYPE BOM_WIND BOM_PRES BOM_TNUM BOM_CI BOM_RMW BOM_R34_NE BOM_R34_SE BOM_R34_SW BOM_R34_NW BOM_R50_NE BOM_R50_SE BOM_R50_SW BOM_R50_NW BOM_R64_NE BOM_R64_SE BOM_R64_SW BOM_R64_NW BOM_ROCI BOM_POCI BOM_EYE BOM_POS_METHOD BOM_PRES_METHOD NADI_LAT NADI_LON NADI_CAT NADI_WIND NADI_PRES WELLINGTON_LAT WELLINGTON_LON WELLINGTON_WIND WELLINGTON_PRES DS824_LAT DS824_LON DS824_STAGE DS824_WIND DS824_PRES TD9636_LAT TD9636_LON TD9636_STAGE TD9636_WIND TD9636_PRES TD9635_LAT TD9635_LON TD9635_WIND TD9635_PRES TD9635_ROCI NEUMANN_LAT NEUMANN_LON NEUMANN_CLASS NEUMANN_WIND NEUMANN_PRES MLC_LAT MLC_LON MLC_CLASS MLC_WIND MLC_PRES USA_GUST BOM_GUST BOM_GUST_PER REUNION_GUST REUNION_GUST_PER USA_SEAHGT USA_SEARAD_NE USA_SEARAD_SE USA_SEARAD_SW USA_SEARAD_NW STORM_SPEED STORM_DIR
1990224N09328 1990 65 NA NA FRAN 1990-08-11 12:00:00 TS 9.00000 -32.1000 25 1010 hurdat_atl main 1577 1500 O_____________ hurdat_atl AL071990 9.00000 -32.1000 TD 25 1010 -1 19 253
1990224N09328 1990 65 NA NA FRAN 1990-08-11 15:00:00 TS 8.72304 -33.0353 main 1500 1435 P_____________ AL071990 8.72304 -33.0353 TD 25 1009 -1 19 255
1990224N09328 1990 65 NA NA FRAN 1990-08-11 18:00:00 TS 8.50000 -34.0000 25 1009 hurdat_atl main 1430 1373 O_____________ hurdat_atl AL071990 8.50000 -34.0000 TD 25 1009 -1 20 260
1990224N09328 1990 65 NA NA FRAN 1990-08-11 21:00:00 TS 8.36946 -35.0325 main 1373 1320 P_____________ AL071990 8.36946 -35.0325 TD 27 1009 -1 22 265
1990224N09328 1990 65 NA NA FRAN 1990-08-12 00:00:00 TS 8.30000 -36.2000 30 1009 hurdat_atl main 1317 1280 O_____________ hurdat_atl AL071990 8.30000 -36.2000 TD 30 1009 -1 25 267
1990224N09328 1990 65 NA NA FRAN 1990-08-12 03:00:00 TS 8.24979 -37.5400 main 1269 1247 P_____________ AL071990 8.24979 -37.5400 TD 30 1009 -1 28 268
1990224N09328 1990 65 NA NA FRAN 1990-08-12 06:00:00 TS 8.20000 -39.0000 30 1009 hurdat_atl main 1247 1186 O_____________ hurdat_atl AL071990 8.20000 -39.0000 TD 30 1009 -1 30 267
1990224N09328 1990 65 NA NA FRAN 1990-08-12 09:00:00 TS 8.09993 -40.5151 main 1181 1113 P_____________ AL071990 8.09993 -40.5151 TD 30 1009 -1 30 266
1990224N09328 1990 65 NA NA FRAN 1990-08-12 12:00:00 TS 8.00000 -42.0000 30 1009 hurdat_atl main 1109 972 O_____________ hurdat_atl AL071990 8.00000 -42.0000 TD 30 1009 -1 28 266
1990224N09328 1990 65 NA NA FRAN 1990-08-12 15:00:00 TS 7.91207 -43.3600 main 962 853 P_____________ AL071990 7.91207 -43.3600 TD 27 1009 -1 26 268
1990224N09328 1990 65 NA NA FRAN 1990-08-12 18:00:00 TS 7.90000 -44.6000 25 1010 hurdat_atl main 844 745 O_____________ hurdat_atl AL071990 7.90000 -44.6000 TD 25 1010 -1 24 273
1990224N09328 1990 65 NA NA FRAN 1990-08-12 21:00:00 TS 8.02701 -45.7372 main 745 670 P_____________ AL071990 8.02701 -45.7372 TD 20 -1 22 278
1990224N09328 1990 65 NA NA FRAN 1990-08-13 00:00:00 DS 8.20000 -46.8000 15 hurdat_atl main 662 592 O_____________ hurdat_atl AL071990 8.20000 -46.8000 WV 15 -3 21 277
1990224N09328 1990 65 NA NA FRAN 1990-08-13 03:00:00 DS 8.29961 -47.8502 main 585 536 P_____________ AL071990 8.29961 -47.8502 WV 15 -3 21 275
1990224N09328 1990 65 NA NA FRAN 1990-08-13 06:00:00 DS 8.40000 -48.9000 15 hurdat_atl main 530 475 O_____________ hurdat_atl AL071990 8.40000 -48.9000 WV 15 -3 21 277
1990224N09328 1990 65 NA NA FRAN 1990-08-13 09:00:00 DS 8.54205 -49.9701 main 468 429 P_____________ AL071990 8.54205 -49.9701 WV 22 -3 22 278
1990224N09328 1990 65 NA NA FRAN 1990-08-13 12:00:00 TS 8.70000 -51.1000 30 1010 hurdat_atl main 424 384 O_____________ hurdat_atl AL071990 8.70000 -51.1000 TD 30 1010 -1 24 278
1990224N09328 1990 65 NA NA FRAN 1990-08-13 15:00:00 TS 8.85737 -52.3350 main 394 355 P_____________ AL071990 8.85737 -52.3350 TD 32 1010 -1 25 277
1990224N09328 1990 65 NA NA FRAN 1990-08-13 18:00:00 TS 9.00000 -53.6000 35 1010 hurdat_atl main 353 347 O_____________ hurdat_atl AL071990 9.00000 -53.6000 TS 35 1010 0 24 275
1990224N09328 1990 65 NA NA FRAN 1990-08-13 21:00:00 TS 9.08406 -54.7631 main 358 355 P_____________ AL071990 9.08406 -54.7631 TS 35 1009 0 24 275
1990224N09328 1990 65 NA NA FRAN 1990-08-14 00:00:00 TS 9.20000 -56.0000 35 1009 hurdat_atl main 348 235 O_____________ hurdat_atl AL071990 9.20000 -56.0000 TS 35 1009 0 27 277
1990224N09328 1990 65 NA NA FRAN 1990-08-14 03:00:00 TS 9.42802 -57.5073 main 227 174 P_____________ AL071990 9.42802 -57.5073 TS 35 1008 0 30 280
1990224N09328 1990 65 NA NA FRAN 1990-08-14 06:00:00 TS 9.70000 -59.0000 35 1008 hurdat_atl main 170 90 O_____________ hurdat_atl AL071990 9.70000 -59.0000 TS 35 1008 0 27 281
1990224N09328 1990 65 NA NA FRAN 1990-08-14 09:00:00 TS 9.95745 -60.2348 main 88 0 P_____________ AL071990 9.95745 -60.2348 TS 35 1007 0 23 282
1990224N09328 1990 65 NA NA FRAN 1990-08-14 12:00:00 TS 10.2000 -61.3000 35 1007 hurdat_atl main 0 O_____________ hurdat_atl AL071990 10.2000 -61.3000 TS 35 1007 0 22 283

About IBTrACS Database

This database is a web-friendly format of International Best Track Archive for Climate Stewardship (IBTrACS), a global best track data archive curated by NOAA dating back to 1842.

Updated: 2021-12-01